createdAt,value
2016-05-30T00:01:06.609Z,0
2016-05-30T00:01:40.518Z,0
2016-05-30T00:02:40.708Z,0
2016-05-30T00:03:40.617Z,0
2016-05-30T00:05:52.685Z,0
2016-05-30T00:07:53.924Z,0
2016-05-30T00:08:52.990Z,0
2016-05-30T00:10:06.571Z,0
2016-05-30T00:10:42.855Z,0
2016-05-30T00:12:06.357Z,0
2016-05-30T00:13:06.532Z,0
2016-05-30T00:13:53.473Z,0
2016-05-30T00:16:07.009Z,0
2016-05-30T00:16:40.371Z,0
2016-05-30T00:18:52.517Z,0
2016-05-30T00:19:41.848Z,0
2016-05-30T00:20:45.069Z,0
2016-05-30T00:21:53.900Z,0
2016-05-30T00:22:38.665Z,0
2016-05-30T00:26:52.303Z,0
2016-05-30T00:27:52.464Z,0
2016-05-30T00:28:38.464Z,0
2016-05-30T00:31:48.052Z,0
2016-05-30T00:33:05.148Z,0
2016-05-30T00:34:48.669Z,0
2016-05-30T00:36:15.688Z,0
2016-05-30T00:36:49.300Z,0
2016-05-30T00:38:01.755Z,0
2016-05-30T00:38:51.273Z,0
2016-05-30T00:39:48.808Z,0
2016-05-30T00:40:51.342Z,0
2016-05-30T00:41:47.782Z,0
2016-05-30T00:43:01.754Z,0
2016-05-30T00:44:02.553Z,0
2016-05-30T00:44:47.790Z,0
2016-05-30T00:45:49.996Z,0
2016-05-30T00:46:48.437Z,0
2016-05-30T00:48:01.845Z,0
2016-05-30T00:49:15.395Z,0
2016-05-30T00:50:28.773Z,0
2016-05-30T00:51:01.681Z,0
2016-05-30T00:53:15.045Z,0
2016-05-30T00:53:48.236Z,0
2016-05-30T00:54:48.004Z,0
2016-05-30T00:56:03.117Z,0
2016-05-30T00:56:47.947Z,0
2016-05-30T00:57:48.325Z,0
2016-05-30T00:58:48.109Z,0
2016-05-30T00:59:48.361Z,0
2016-05-30T01:01:15.083Z,0
2016-05-30T01:02:01.991Z,0
2016-05-30T01:03:15.010Z,0
2016-05-30T01:03:49.575Z,0
2016-05-30T01:04:48.860Z,0
2016-05-30T01:10:27.216Z,0
2016-05-30T01:11:40.862Z,0
2016-05-30T01:13:06.443Z,0
2016-05-30T01:14:00.243Z,0
2016-05-30T01:15:14.245Z,0
2016-05-30T01:16:27.124Z,0
2016-05-30T01:17:13.813Z,0
2016-05-30T01:18:59.647Z,0
2016-05-30T01:20:26.806Z,0
2016-05-30T01:22:27.234Z,0
2016-05-30T01:23:14.564Z,0
2016-05-30T01:23:59.817Z,0
2016-05-30T01:27:26.825Z,0
2016-05-30T01:28:26.625Z,0
2016-05-30T01:29:26.720Z,0
2016-05-30T01:30:13.083Z,0
2016-05-30T01:33:35.622Z,0
2016-05-30T01:35:29.112Z,0
2016-05-30T01:36:09.036Z,0
2016-05-30T01:37:09.867Z,0
2016-05-30T01:38:11.619Z,0
2016-05-30T01:39:22.701Z,0
2016-05-30T01:40:22.704Z,0
2016-05-30T01:41:22.128Z,0
2016-05-30T01:42:21.834Z,0
2016-05-30T01:45:22.888Z,0
2016-05-30T01:46:24.720Z,0
2016-05-30T01:47:08.565Z,0
2016-05-30T01:49:35.399Z,0
2016-05-30T01:51:36.108Z,0
2016-05-30T01:52:21.720Z,0
2016-05-30T01:53:21.395Z,0
2016-05-30T01:54:21.616Z,0
2016-05-30T01:55:21.525Z,0
2016-05-30T01:56:21.496Z,0
2016-05-30T01:58:35.439Z,0
2016-05-30T02:00:22.538Z,0
2016-05-30T02:01:08.042Z,0
2016-05-30T02:02:21.638Z,0
2016-05-30T02:03:22.530Z,0
2016-05-30T02:06:08.758Z,0
2016-05-30T02:07:36.245Z,0
2016-05-30T02:08:35.280Z,0
2016-05-30T02:09:21.327Z,0
2016-05-30T02:10:21.706Z,0
2016-05-30T02:11:08.552Z,0
2016-05-30T02:12:21.711Z,0
2016-05-30T02:13:21.949Z,0
2016-05-30T02:14:48.860Z,0
2016-05-30T02:15:21.407Z,0
2016-05-30T02:16:34.691Z,0
2016-05-30T02:17:22.069Z,0
2016-05-30T02:18:35.024Z,0
2016-05-30T02:19:08.699Z,0
2016-05-30T02:20:09.452Z,0
2016-05-30T02:22:34.738Z,0
2016-05-30T02:23:35.256Z,0
2016-05-30T02:24:08.087Z,0
2016-05-30T02:25:49.499Z,0
2016-05-30T02:26:20.890Z,0
2016-05-30T02:27:20.955Z,0
2016-05-30T02:28:34.629Z,0
2016-05-30T02:32:19.733Z,0
2016-05-30T02:33:07.050Z,0
2016-05-30T02:34:21.161Z,0
2016-05-30T02:36:21.822Z,0
2016-05-30T02:37:20.544Z,0
2016-05-30T02:38:21.500Z,0
2016-05-30T02:39:35.078Z,0
2016-05-30T02:40:34.389Z,0
2016-05-30T02:41:34.574Z,0
2016-05-30T02:42:21.432Z,0
2016-05-30T02:44:22.265Z,0
2016-05-30T02:45:21.137Z,0
2016-05-30T02:46:21.586Z,0
2016-05-30T02:47:07.848Z,0
2016-05-30T02:48:07.626Z,0
2016-05-30T02:49:09.261Z,0
2016-05-30T02:50:07.875Z,0
2016-05-30T02:52:34.623Z,0
2016-05-30T02:53:21.535Z,0
2016-05-30T02:54:13.228Z,0
2016-05-30T02:56:20.501Z,0
2016-05-30T02:57:20.490Z,0
2016-05-30T03:00:15.797Z,0
2016-05-30T03:00:45.161Z,0
2016-05-30T03:06:43.473Z,0
2016-05-30T03:07:40.725Z,0
2016-05-30T03:10:40.593Z,0
2016-05-30T03:12:53.381Z,0
2016-05-30T03:16:39.453Z,0
2016-05-30T03:17:46.833Z,0
2016-05-30T03:18:39.505Z,0
2016-05-30T03:19:55.478Z,0
2016-05-30T03:20:53.169Z,0
2016-05-30T03:22:40.374Z,0
2016-05-30T03:23:54.614Z,0
2016-05-30T03:25:06.789Z,0
2016-05-30T03:27:48.797Z,0
2016-05-30T03:28:50.002Z,0
2016-05-30T03:29:50.568Z,0
2016-05-30T03:31:03.023Z,0
2016-05-30T03:33:02.451Z,0
2016-05-30T03:34:16.265Z,0
2016-05-30T03:35:06.206Z,0
2016-05-30T03:35:51.021Z,0
2016-05-30T03:37:17.853Z,0
2016-05-30T03:38:02.871Z,0
2016-05-30T03:39:03.374Z,0
2016-05-30T03:40:03.313Z,0
2016-05-30T03:40:49.410Z,0
2016-05-30T03:41:49.492Z,0
2016-05-30T03:43:02.759Z,0
2016-05-30T03:45:02.265Z,0
2016-05-30T03:45:49.111Z,0
2016-05-30T03:46:49.817Z,0
2016-05-30T03:47:49.178Z,0
2016-05-30T03:48:48.525Z,0
2016-05-30T03:50:16.247Z,0
2016-05-30T03:52:03.064Z,0
2016-05-30T03:53:15.739Z,0
2016-05-30T03:55:15.635Z,0
2016-05-30T03:57:15.532Z,0
2016-05-30T03:57:51.971Z,0
2016-05-30T04:02:15.591Z,0
2016-05-30T04:02:49.578Z,0
2016-05-30T04:03:48.363Z,0
2016-05-30T04:05:03.021Z,0
2016-05-30T04:06:01.602Z,0
2016-05-30T04:07:16.058Z,0
2016-05-30T04:08:01.779Z,0
2016-05-30T04:09:02.064Z,0
2016-05-30T04:09:49.613Z,0
2016-05-30T04:10:48.866Z,0
2016-05-30T04:11:47.993Z,0
2016-05-30T04:12:48.464Z,0
2016-05-30T04:13:49.203Z,0
2016-05-30T04:15:02.486Z,0
2016-05-30T04:15:49.208Z,0
2016-05-30T04:17:08.117Z,0
2016-05-30T04:18:50.669Z,0
2016-05-30T04:19:50.734Z,0
2016-05-30T04:21:01.424Z,0
2016-05-30T04:21:48.255Z,0
2016-05-30T04:22:48.148Z,0
2016-05-30T04:28:01.286Z,5
2016-05-30T04:29:01.773Z,5
2016-05-30T04:30:47.576Z,5
2016-05-30T04:31:49.157Z,5
2016-05-30T04:33:47.459Z,0
2016-05-30T04:34:48.226Z,0
2016-05-30T04:35:48.682Z,0
2016-05-30T04:37:14.765Z,0
2016-05-30T04:37:47.954Z,0
2016-05-30T04:39:47.584Z,0
2016-05-30T04:41:15.150Z,0
2016-05-30T04:42:01.292Z,0
2016-05-30T04:42:49.531Z,0
2016-05-30T04:44:03.954Z,0
2016-05-30T04:44:50.550Z,0
2016-05-30T04:45:47.554Z,0
2016-05-30T04:46:48.791Z,0
2016-05-30T04:48:47.797Z,0
2016-05-30T04:49:47.531Z,0
2016-05-30T04:50:47.927Z,0
2016-05-30T04:52:01.570Z,0
2016-05-30T04:53:14.525Z,0
2016-05-30T04:53:48.278Z,0
2016-05-30T04:56:00.830Z,0
2016-05-30T04:57:00.568Z,0
2016-05-30T04:57:47.661Z,0
2016-05-30T04:59:00.713Z,0
2016-05-30T05:00:14.388Z,0
2016-05-30T05:01:00.704Z,0
2016-05-30T05:02:01.674Z,0
2016-05-30T05:03:14.380Z,0
2016-05-30T05:04:00.290Z,0
2016-05-30T05:05:14.901Z,0
2016-05-30T05:05:48.060Z,0
2016-05-30T05:07:00.845Z,0
2016-05-30T05:10:00.946Z,0
2016-05-30T05:11:01.620Z,0
2016-05-30T05:12:01.061Z,0
2016-05-30T05:12:46.764Z,0
2016-05-30T05:13:47.517Z,0
2016-05-30T05:16:00.494Z,0
2016-05-30T05:17:01.762Z,0
2016-05-30T05:17:47.997Z,0
2016-05-30T05:19:00.314Z,0
2016-05-30T05:20:01.614Z,0
2016-05-30T05:21:00.929Z,0
2016-05-30T05:22:01.182Z,0
2016-05-30T05:23:00.403Z,0
2016-05-30T05:24:00.016Z,0
2016-05-30T05:25:00.252Z,0
2016-05-30T05:25:50.661Z,0
2016-05-30T05:27:00.195Z,0
2016-05-30T05:28:47.417Z,0
2016-05-30T05:29:46.794Z,0
2016-05-30T05:30:46.656Z,0
2016-05-30T05:31:46.503Z,0
2016-05-30T05:32:47.333Z,0
2016-05-30T05:33:46.977Z,0
2016-05-30T05:34:46.667Z,0
2016-05-30T05:35:46.404Z,0
2016-05-30T05:36:46.860Z,0
2016-05-30T05:38:00.146Z,0
2016-05-30T05:38:50.274Z,0
2016-05-30T05:40:00.479Z,0
2016-05-30T05:41:00.733Z,0
2016-05-30T05:42:00.907Z,0
2016-05-30T05:43:03.988Z,0
2016-05-30T05:43:47.910Z,0
2016-05-30T05:44:46.506Z,0
2016-05-30T05:46:02.589Z,0
2016-05-30T05:47:46.515Z,0
2016-05-30T05:49:00.129Z,0
2016-05-30T05:49:46.567Z,0
2016-05-30T05:51:00.025Z,0
2016-05-30T05:51:47.369Z,0
2016-05-30T05:52:47.683Z,0
2016-05-30T05:54:00.487Z,0
2016-05-30T05:54:46.440Z,0
2016-05-30T05:55:46.833Z,0
2016-05-30T05:56:47.648Z,0
2016-05-30T05:57:47.729Z,0
2016-05-30T05:58:47.294Z,0
2016-05-30T06:00:00.066Z,0
2016-05-30T06:00:46.316Z,0
2016-05-30T06:03:00.058Z,0
2016-05-30T06:04:00.466Z,0
2016-05-30T06:05:46.313Z,0
2016-05-30T06:06:46.472Z,0
2016-05-30T06:07:45.740Z,0
2016-05-30T06:08:46.415Z,0
2016-05-30T06:09:46.793Z,0
2016-05-30T06:12:00.785Z,0
2016-05-30T06:13:13.209Z,0
2016-05-30T06:14:46.400Z,0
2016-05-30T06:16:46.514Z,0
2016-05-30T06:17:45.689Z,0
2016-05-30T06:18:45.723Z,0
2016-05-30T06:19:46.819Z,0
2016-05-30T06:21:02.715Z,0
2016-05-30T06:21:47.325Z,0
2016-05-30T06:23:52.427Z,0
2016-05-30T06:24:46.739Z,0
2016-05-30T06:25:46.554Z,0
2016-05-30T06:27:00.685Z,0
2016-05-30T06:28:00.812Z,0
2016-05-30T06:28:45.421Z,0
2016-05-30T06:29:45.705Z,0
2016-05-30T06:30:47.583Z,0
2016-05-30T06:31:46.101Z,0
2016-05-30T06:32:46.526Z,0
2016-05-30T06:34:45.250Z,0
2016-05-30T06:35:49.628Z,0
2016-05-30T06:37:00.337Z,0
2016-05-30T06:37:46.493Z,0
2016-05-30T06:38:47.182Z,0
2016-05-30T06:39:45.654Z,0
2016-05-30T06:40:58.893Z,0
2016-05-30T06:42:12.507Z,0
2016-05-30T06:42:59.353Z,0
2016-05-30T06:43:59.106Z,0
2016-05-30T06:44:45.418Z,0
2016-05-30T06:45:49.311Z,0
2016-05-30T06:47:45.801Z,0
2016-05-30T06:48:44.866Z,0
2016-05-30T06:49:45.448Z,0
2016-05-30T06:51:01.217Z,0
2016-05-30T06:51:44.764Z,0
2016-05-30T06:53:13.630Z,0
2016-05-30T06:53:44.614Z,0
2016-05-30T06:54:59.620Z,0
2016-05-30T06:56:01.153Z,0
2016-05-30T06:56:59.406Z,5
2016-05-30T06:57:44.937Z,5
2016-05-30T06:58:58.552Z,5
2016-05-30T06:59:45.567Z,5
2016-05-30T07:01:01.135Z,5
2016-05-30T07:01:59.357Z,0
2016-05-30T07:02:46.122Z,5
2016-05-30T07:03:59.206Z,0
2016-05-30T07:04:44.769Z,0
2016-05-30T07:05:45.819Z,0
2016-05-30T07:07:01.214Z,0
2016-05-30T07:08:02.263Z,0
2016-05-30T07:08:44.779Z,0
2016-05-30T07:10:48.331Z,0
2016-05-30T07:11:44.913Z,0
2016-05-30T07:12:45.102Z,0
2016-05-30T07:13:44.792Z,0
2016-05-30T07:14:44.655Z,0
2016-05-30T07:15:48.079Z,0
2016-05-30T07:16:58.257Z,0
2016-05-30T07:18:44.729Z,0
2016-05-30T07:19:44.746Z,0
2016-05-30T07:20:59.673Z,0
2016-05-30T07:22:11.739Z,0
2016-05-30T07:22:45.661Z,0
2016-05-30T07:24:46.134Z,0
2016-05-30T07:25:47.716Z,0
2016-05-30T07:26:44.578Z,0
2016-05-30T07:27:44.753Z,0
2016-05-30T07:28:57.742Z,0
2016-05-30T07:30:01.089Z,0
2016-05-30T07:30:59.138Z,0
2016-05-30T07:31:44.450Z,0
2016-05-30T07:32:44.735Z,0
2016-05-30T07:33:46.721Z,0
2016-05-30T07:34:58.961Z,0
2016-05-30T07:35:46.852Z,0
2016-05-30T07:36:59.138Z,0
2016-05-30T07:37:58.313Z,0
2016-05-30T07:38:44.594Z,0
2016-05-30T07:39:57.866Z,0
2016-05-30T07:40:57.555Z,0
2016-05-30T07:41:57.605Z,0
2016-05-30T07:42:58.029Z,0
2016-05-30T07:43:57.689Z,0
2016-05-30T07:45:01.926Z,0
2016-05-30T07:45:45.832Z,0
2016-05-30T07:46:44.443Z,0
2016-05-30T07:47:44.415Z,0
2016-05-30T07:48:44.746Z,0
2016-05-30T07:49:44.968Z,0
2016-05-30T07:51:10.739Z,0
2016-05-30T07:51:45.098Z,0
2016-05-30T07:52:57.541Z,0
2016-05-30T07:53:46.650Z,0
2016-05-30T07:54:57.781Z,0
2016-05-30T07:55:48.531Z,0
2016-05-30T07:56:57.192Z,0
2016-05-30T07:58:44.320Z,0
2016-05-30T07:59:43.885Z,0
2016-05-30T08:01:57.047Z,0
2016-05-30T08:02:56.878Z,0
2016-05-30T08:03:56.708Z,0
2016-05-30T08:04:56.977Z,0
2016-05-30T08:05:44.667Z,0
2016-05-30T08:06:45.435Z,0
2016-05-30T08:07:43.125Z,0
2016-05-30T08:08:43.410Z,0
2016-05-30T08:09:43.413Z,0
2016-05-30T08:10:44.165Z,0
2016-05-30T08:12:44.967Z,0
2016-05-30T08:13:43.110Z,0
2016-05-30T08:15:43.319Z,0
2016-05-30T08:16:44.729Z,0
2016-05-30T08:17:44.231Z,0
2016-05-30T08:19:15.423Z,0
2016-05-30T08:24:11.233Z,0
2016-05-30T08:25:29.486Z,0
2016-05-30T08:26:29.145Z,0
2016-05-30T08:27:30.195Z,0
2016-05-30T08:29:29.544Z,0
2016-05-30T08:31:10.158Z,0
2016-05-30T08:31:29.174Z,0
2016-05-30T08:32:28.942Z,0
2016-05-30T08:33:43.133Z,5
2016-05-30T08:34:56.448Z,0
2016-05-30T08:35:43.107Z,0
2016-05-30T08:36:30.297Z,0
2016-05-30T08:37:29.847Z,0
2016-05-30T08:39:30.586Z,0
2016-05-30T08:40:44.339Z,0
2016-05-30T08:41:30.639Z,0
2016-05-30T08:42:33.205Z,0
2016-05-30T08:43:31.175Z,0
2016-05-30T08:44:42.366Z,0
2016-05-30T08:45:29.306Z,0
2016-05-30T08:46:28.652Z,0
2016-05-30T08:47:42.748Z,0
2016-05-30T08:48:29.282Z,0
2016-05-30T08:49:30.113Z,0
2016-05-30T08:50:28.835Z,0
2016-05-30T08:51:28.713Z,0
2016-05-30T08:52:29.528Z,0
2016-05-30T08:53:29.795Z,0
2016-05-30T08:54:29.642Z,0
2016-05-30T08:55:30.192Z,0
2016-05-30T08:56:29.492Z,0
2016-05-30T08:57:42.214Z,0
2016-05-30T08:58:42.342Z,0
2016-05-30T08:59:42.547Z,0
2016-05-30T09:00:43.408Z,0
2016-05-30T09:01:29.052Z,0
2016-05-30T09:02:29.133Z,0
2016-05-30T09:03:30.073Z,0
2016-05-30T09:04:42.029Z,0
2016-05-30T09:05:29.375Z,5
2016-05-30T09:06:29.081Z,5
2016-05-30T09:08:28.369Z,5
2016-05-30T09:09:28.277Z,5
2016-05-30T09:10:28.248Z,5
2016-05-30T09:11:30.157Z,5
2016-05-30T09:12:30.222Z,5
2016-05-30T09:13:28.663Z,5
2016-05-30T09:14:28.946Z,5
2016-05-30T09:15:28.215Z,10
2016-05-30T09:16:28.170Z,5
2016-05-30T09:17:28.610Z,5
2016-05-30T09:18:42.160Z,5
2016-05-30T09:19:28.054Z,5
2016-05-30T09:20:41.651Z,5
2016-05-30T09:21:28.121Z,5
2016-05-30T09:22:28.749Z,5
2016-05-30T09:23:28.548Z,5
2016-05-30T09:24:42.348Z,5
2016-05-30T09:25:28.304Z,5
2016-05-30T09:26:28.229Z,5
2016-05-30T09:27:41.497Z,5
2016-05-30T09:28:27.936Z,5
2016-05-30T09:29:28.550Z,5
2016-05-30T09:30:28.114Z,5
2016-05-30T09:31:28.476Z,5
2016-05-30T09:34:42.891Z,5
2016-05-30T09:35:32.034Z,0
2016-05-30T09:36:28.208Z,0
2016-05-30T09:37:28.853Z,0
2016-05-30T09:38:27.605Z,0
2016-05-30T09:39:27.888Z,0
2016-05-30T09:40:27.782Z,5
2016-05-30T09:41:28.144Z,5
2016-05-30T09:42:28.615Z,5
2016-05-30T09:43:41.322Z,5
2016-05-30T09:45:29.138Z,5
2016-05-30T09:46:28.955Z,5
2016-05-30T09:47:41.957Z,5
2016-05-30T09:48:27.771Z,5
2016-05-30T09:49:41.791Z,0
2016-05-30T09:50:28.356Z,5
2016-05-30T09:51:42.702Z,5
2016-05-30T09:52:28.032Z,5
2016-05-30T09:53:54.676Z,0
2016-05-30T09:54:41.100Z,5
2016-05-30T09:55:54.728Z,5
2016-05-30T09:56:28.075Z,5
2016-05-30T09:57:41.406Z,5
2016-05-30T09:58:27.595Z,5
2016-05-30T09:59:28.458Z,5
2016-05-30T10:00:27.226Z,5
2016-05-30T10:01:27.276Z,5
2016-05-30T10:02:41.825Z,0
2016-05-30T10:03:28.094Z,0
2016-05-30T10:04:27.847Z,0
2016-05-30T10:05:42.272Z,5
2016-05-30T10:06:28.367Z,5
2016-05-30T10:07:28.370Z,5
2016-05-30T10:08:41.014Z,5
2016-05-30T10:09:27.064Z,5
2016-05-30T10:10:28.285Z,5
2016-05-30T10:11:27.334Z,5
2016-05-30T10:12:26.978Z,5
2016-05-30T10:13:27.121Z,0
2016-05-30T10:14:26.983Z,0
2016-05-30T10:15:26.892Z,0
2016-05-30T10:16:27.004Z,0
2016-05-30T10:17:27.335Z,5
2016-05-30T10:18:41.040Z,5
2016-05-30T10:19:54.090Z,5
2016-05-30T10:20:41.140Z,5
2016-05-30T10:21:28.048Z,5
2016-05-30T10:22:28.910Z,0
2016-05-30T10:24:27.885Z,0
2016-05-30T10:25:26.871Z,0
2016-05-30T10:26:41.140Z,5
2016-05-30T10:27:27.331Z,5
2016-05-30T10:28:40.958Z,5
2016-05-30T10:29:27.445Z,5
2016-05-30T10:30:41.057Z,5
2016-05-30T10:31:41.716Z,5
2016-05-30T10:32:40.984Z,0
2016-05-30T10:33:41.300Z,0
2016-05-30T10:34:26.989Z,0
2016-05-30T10:35:27.383Z,0
2016-05-30T10:36:27.401Z,0
2016-05-30T10:37:27.936Z,0
2016-05-30T10:38:26.688Z,0
2016-05-30T10:39:26.956Z,0
2016-05-30T10:40:27.271Z,5
2016-05-30T10:41:40.650Z,5
2016-05-30T10:43:40.186Z,5
2016-05-30T10:44:26.986Z,0
2016-05-30T10:45:26.988Z,0
2016-05-30T10:46:27.756Z,0
2016-05-30T10:47:29.338Z,5
2016-05-30T10:48:41.105Z,5
2016-05-30T10:49:26.404Z,5
2016-05-30T10:51:26.255Z,5
2016-05-30T10:52:39.773Z,10
2016-05-30T10:53:53.526Z,5
2016-05-30T10:54:41.029Z,5
2016-05-30T10:55:26.281Z,5
2016-05-30T10:56:26.705Z,5
2016-05-30T10:57:25.974Z,0
2016-05-30T10:58:26.164Z,0
2016-05-30T10:59:43.401Z,0
2016-05-30T11:00:26.747Z,0
2016-05-30T11:01:42.937Z,0
2016-05-30T11:02:29.065Z,0
2016-05-30T11:03:41.020Z,0
2016-05-30T11:04:39.305Z,0
2016-05-30T11:05:43.339Z,0
2016-05-30T11:06:26.341Z,0
2016-05-30T11:07:26.156Z,0
2016-05-30T11:08:26.253Z,0
2016-05-30T11:09:42.552Z,0
2016-05-30T11:10:39.758Z,0
2016-05-30T11:11:27.199Z,0
2016-05-30T11:12:26.514Z,0
2016-05-30T11:13:39.219Z,0
2016-05-30T11:14:25.878Z,0
2016-05-30T11:15:25.647Z,5
2016-05-30T11:16:25.962Z,0
2016-05-30T11:18:25.843Z,0
2016-05-30T11:19:25.799Z,0
2016-05-30T11:20:25.598Z,0
2016-05-30T11:21:25.851Z,0
2016-05-30T11:22:26.775Z,0
2016-05-30T11:23:26.544Z,0
2016-05-30T11:24:25.468Z,0
2016-05-30T11:25:39.268Z,0
2016-05-30T11:26:52.957Z,0
2016-05-30T11:27:26.898Z,0
2016-05-30T11:28:25.806Z,0
2016-05-30T11:29:53.529Z,0
2016-05-30T11:30:25.406Z,0
2016-05-30T11:31:25.456Z,0
2016-05-30T11:32:25.473Z,0
2016-05-30T11:33:27.461Z,0
2016-05-30T11:34:25.636Z,0
2016-05-30T11:35:39.576Z,5
2016-05-30T11:36:39.078Z,5
2016-05-30T11:37:25.456Z,5
2016-05-30T11:38:39.099Z,5
2016-05-30T11:39:39.025Z,0
2016-05-30T11:40:26.605Z,0
2016-05-30T11:41:40.185Z,0
2016-05-30T11:42:26.110Z,0
2016-05-30T11:43:24.456Z,0
2016-05-30T11:44:38.913Z,5
2016-05-30T11:45:25.461Z,5
2016-05-30T11:46:25.579Z,5
2016-05-30T11:47:40.898Z,5
2016-05-30T11:49:39.240Z,5
2016-05-30T11:51:25.327Z,5
2016-05-30T11:53:25.472Z,0
2016-05-30T11:54:27.982Z,0
2016-05-30T11:56:25.040Z,0
2016-05-30T11:57:25.343Z,0
2016-05-30T11:58:25.754Z,0
2016-05-30T11:59:25.604Z,0
2016-05-30T12:00:25.311Z,0
2016-05-30T12:01:38.596Z,0
2016-05-30T12:02:25.053Z,0
2016-05-30T12:03:31.245Z,0
2016-05-30T12:04:26.513Z,0
2016-05-30T12:05:25.033Z,0
2016-05-30T12:06:26.067Z,0
2016-05-30T12:08:25.714Z,0
2016-05-30T12:09:24.842Z,0
2016-05-30T12:10:24.845Z,0
2016-05-30T12:11:25.613Z,0
2016-05-30T12:12:25.115Z,0
2016-05-30T12:13:38.696Z,0
2016-05-30T12:14:38.277Z,0
2016-05-30T12:15:38.764Z,0
2016-05-30T12:16:27.986Z,0
2016-05-30T12:17:26.442Z,0
2016-05-30T12:18:24.914Z,0
2016-05-30T12:19:24.744Z,0
2016-05-30T12:20:25.090Z,0
2016-05-30T12:21:24.937Z,0
2016-05-30T12:22:25.611Z,0
2016-05-30T12:23:39.302Z,0
2016-05-30T12:24:24.726Z,0
2016-05-30T12:25:38.088Z,0
2016-05-30T12:26:38.138Z,0
2016-05-30T12:28:26.440Z,0
2016-05-30T12:29:25.333Z,0
2016-05-30T12:30:24.711Z,0
2016-05-30T12:31:24.511Z,0
2016-05-30T12:32:38.185Z,0
2016-05-30T12:33:37.844Z,0
2016-05-30T12:36:39.352Z,0
2016-05-30T12:37:38.418Z,0
2016-05-30T12:38:37.982Z,0
2016-05-30T12:39:51.516Z,5
2016-05-30T12:40:24.660Z,0
2016-05-30T12:41:24.475Z,0
2016-05-30T12:42:25.462Z,0
2016-05-30T12:43:37.793Z,0
2016-05-30T12:44:37.843Z,0
2016-05-30T12:45:24.798Z,0
2016-05-30T12:46:38.348Z,5
2016-05-30T12:47:37.787Z,5
2016-05-30T12:48:38.229Z,5
2016-05-30T12:49:38.715Z,5
2016-05-30T12:51:25.033Z,5
2016-05-30T12:52:38.583Z,0
2016-05-30T12:53:24.054Z,0
2016-05-30T12:54:23.853Z,0
2016-05-30T12:55:24.341Z,0
2016-05-30T12:56:26.672Z,0
2016-05-30T12:57:24.831Z,0
2016-05-30T12:58:23.974Z,0
2016-05-30T12:59:37.711Z,0
2016-05-30T13:00:37.869Z,0
2016-05-30T13:01:37.419Z,0
2016-05-30T13:02:24.063Z,0
2016-05-30T13:03:24.205Z,0
2016-05-30T13:04:24.052Z,5
2016-05-30T13:05:23.665Z,5
2016-05-30T13:06:24.730Z,0
2016-05-30T13:07:23.577Z,0
2016-05-30T13:08:23.954Z,0
2016-05-30T13:09:23.566Z,5
2016-05-30T13:10:26.741Z,5
2016-05-30T13:12:37.621Z,0
2016-05-30T13:13:24.311Z,0
2016-05-30T13:14:25.689Z,0
2016-05-30T13:15:23.598Z,0
2016-05-30T13:16:26.975Z,0
2016-05-30T13:17:24.087Z,0
2016-05-30T13:18:37.481Z,0
2016-05-30T13:19:26.170Z,0
2016-05-30T13:20:37.330Z,0
2016-05-30T13:21:37.754Z,0
2016-05-30T13:22:37.304Z,0
2016-05-30T13:23:37.963Z,0
2016-05-30T13:24:37.387Z,0
2016-05-30T13:25:24.125Z,0
2016-05-30T13:26:37.689Z,0
2016-05-30T13:27:26.505Z,0
2016-05-30T13:28:23.695Z,0
2016-05-30T13:29:24.182Z,0
2016-05-30T13:30:24.091Z,5
2016-05-30T13:31:23.797Z,5
2016-05-30T13:32:23.471Z,5
2016-05-30T13:33:23.772Z,5
2016-05-30T13:34:26.414Z,0
2016-05-30T13:35:24.338Z,0
2016-05-30T13:36:23.467Z,0
2016-05-30T13:37:40.454Z,0
2016-05-30T13:38:26.925Z,0
2016-05-30T13:39:26.350Z,0
2016-05-30T13:40:24.196Z,0
2016-05-30T13:41:23.668Z,0
2016-05-30T13:42:23.780Z,5
2016-05-30T13:43:26.063Z,5
2016-05-30T13:45:50.663Z,5
2016-05-30T13:46:23.571Z,5
2016-05-30T13:47:50.574Z,5
2016-05-30T13:49:27.799Z,5
2016-05-30T13:50:36.582Z,5
2016-05-30T13:51:22.929Z,5
2016-05-30T13:52:26.337Z,5
2016-05-30T13:53:28.044Z,5
2016-05-30T13:54:25.797Z,5
2016-05-30T13:55:22.846Z,10
2016-05-30T13:56:22.864Z,10
2016-05-30T13:59:36.669Z,10
2016-05-30T14:00:23.094Z,15
2016-05-30T14:01:23.096Z,15
2016-05-30T14:02:22.755Z,15
2016-05-30T14:03:26.086Z,20
2016-05-30T14:04:22.777Z,20
2016-05-30T14:05:23.497Z,20
2016-05-30T14:06:36.266Z,25
2016-05-30T14:07:36.503Z,15
2016-05-30T14:08:22.646Z,30
2016-05-30T14:09:24.790Z,55
2016-05-30T14:10:37.136Z,65
2016-05-30T14:11:22.405Z,45
2016-05-30T14:12:23.266Z,30
2016-05-30T14:13:22.706Z,30
2016-05-30T14:14:25.960Z,25
2016-05-30T14:15:40.416Z,25
2016-05-30T14:16:36.074Z,40
2016-05-30T14:17:50.343Z,100
2016-05-30T14:18:35.892Z,275
2016-05-30T14:19:36.785Z,190
2016-05-30T14:20:23.023Z,165
2016-05-30T14:21:28.962Z,140
2016-05-30T14:22:22.434Z,100
2016-05-30T14:23:25.718Z,75
2016-05-30T14:24:22.236Z,70
2016-05-30T14:25:22.520Z,70
2016-05-30T14:26:22.211Z,65
2016-05-30T14:27:36.760Z,70
2016-05-30T14:28:52.591Z,105
2016-05-30T14:29:24.375Z,165
2016-05-30T14:30:39.269Z,235
2016-05-30T14:31:22.131Z,195
2016-05-30T14:32:22.039Z,160
2016-05-30T14:33:24.073Z,150
2016-05-30T14:34:35.544Z,115
2016-05-30T14:35:22.094Z,85
2016-05-30T14:36:22.222Z,75
2016-05-30T14:37:23.850Z,75
2016-05-30T14:38:35.650Z,70
2016-05-30T14:39:25.933Z,80
2016-05-30T14:40:35.748Z,85
2016-05-30T14:41:21.673Z,165
2016-05-30T14:42:21.941Z,215
2016-05-30T14:43:21.929Z,175
2016-05-30T14:44:36.181Z,185
2016-05-30T14:45:23.324Z,220
2016-05-30T14:46:35.639Z,350
2016-05-30T14:47:20.877Z,370
2016-05-30T14:48:22.457Z,410
2016-05-30T14:49:35.553Z,245
2016-05-30T14:51:22.403Z,225
2016-05-30T14:52:23.499Z,300
2016-05-30T14:53:23.674Z,345
2016-05-30T14:54:22.379Z,300
2016-05-30T14:56:21.713Z,230
2016-05-30T14:57:26.137Z,150
2016-05-30T14:58:21.515Z,120
2016-05-30T14:59:36.003Z,70
2016-05-30T15:00:39.192Z,50
2016-05-30T15:01:22.305Z,50
2016-05-30T15:02:36.370Z,40
2016-05-30T15:03:35.888Z,40
2016-05-30T15:04:48.938Z,45
2016-05-30T15:05:21.330Z,45
2016-05-30T15:06:26.521Z,50
2016-05-30T15:07:26.993Z,45
2016-05-30T15:08:22.277Z,35
2016-05-30T15:09:27.467Z,40
2016-05-30T15:10:23.141Z,45
2016-05-30T15:11:25.066Z,40
2016-05-30T15:12:34.943Z,40
2016-05-30T15:13:35.274Z,40
2016-05-30T15:14:22.902Z,40
2016-05-30T15:15:34.874Z,35
2016-05-30T15:17:34.941Z,35
2016-05-30T15:18:34.959Z,35
2016-05-30T15:19:21.087Z,35
2016-05-30T15:20:21.747Z,30
2016-05-30T15:23:21.489Z,30
2016-05-30T15:24:21.194Z,30
2016-05-30T15:25:37.807Z,30
2016-05-30T15:26:21.606Z,30
2016-05-30T15:27:51.906Z,25
2016-05-30T15:29:34.755Z,25
2016-05-30T15:30:22.180Z,25
2016-05-30T15:31:21.650Z,25
2016-05-30T15:32:21.326Z,30
2016-05-30T15:34:21.019Z,30
2016-05-30T15:35:48.989Z,30
2016-05-30T15:36:20.961Z,25
2016-05-30T15:37:23.714Z,30
2016-05-30T15:38:22.795Z,35
2016-05-30T15:40:35.394Z,25
2016-05-30T15:41:35.334Z,20
2016-05-30T15:42:22.133Z,25
2016-05-30T15:43:21.105Z,30
2016-05-30T15:44:21.577Z,30
2016-05-30T15:45:20.736Z,35
2016-05-30T15:46:21.019Z,30
2016-05-30T15:47:20.756Z,20
2016-05-30T15:48:21.650Z,15
2016-05-30T15:49:34.715Z,20
2016-05-30T15:50:21.312Z,25
2016-05-30T15:52:34.239Z,35
2016-05-30T15:53:34.570Z,40
2016-05-30T15:54:21.682Z,35
2016-05-30T15:55:25.325Z,30
2016-05-30T15:56:23.437Z,20
2016-05-30T15:57:20.284Z,15
2016-05-30T15:58:20.614Z,5
2016-05-30T16:00:21.151Z,5
2016-05-30T16:01:34.825Z,5
2016-05-30T16:02:34.344Z,5
2016-05-30T16:03:21.158Z,5
2016-05-30T16:04:34.739Z,5
2016-05-30T16:05:20.431Z,5
2016-05-30T16:06:20.448Z,5
2016-05-30T16:07:22.185Z,0
2016-05-30T16:08:39.813Z,0
2016-05-30T16:10:22.459Z,0
2016-05-30T16:11:25.899Z,0
2016-05-30T16:12:21.168Z,0
2016-05-30T16:13:35.076Z,0
2016-05-30T16:14:33.861Z,0
2016-05-30T16:15:21.472Z,0
2016-05-30T16:16:20.835Z,0
2016-05-30T16:17:21.540Z,0
2016-05-30T16:18:21.074Z,0
2016-05-30T16:19:34.421Z,5
2016-05-30T16:20:20.361Z,0
2016-05-30T16:21:20.645Z,0
2016-05-30T16:22:21.132Z,0
2016-05-30T16:23:23.978Z,0
2016-05-30T16:24:24.232Z,0
2016-05-30T16:26:33.690Z,0
2016-05-30T16:28:33.757Z,5
2016-05-30T16:29:20.507Z,5
2016-05-30T16:30:23.106Z,5
2016-05-30T16:31:20.890Z,5
2016-05-30T16:32:20.219Z,5
2016-05-30T16:33:33.349Z,5
2016-05-30T16:34:20.536Z,5
2016-05-30T16:35:19.712Z,10
2016-05-30T16:36:48.028Z,10
2016-05-30T16:37:20.825Z,10
2016-05-30T16:38:26.566Z,10
2016-05-30T16:39:48.225Z,10
2016-05-30T16:40:20.366Z,10
2016-05-30T16:41:23.621Z,10
2016-05-30T16:42:47.529Z,15
2016-05-30T16:43:23.127Z,15
2016-05-30T16:44:22.347Z,15
2016-05-30T16:45:19.660Z,15
2016-05-30T16:46:19.819Z,15
2016-05-30T16:47:19.837Z,15
2016-05-30T16:48:20.387Z,15
2016-05-30T16:49:36.236Z,15
2016-05-30T16:50:26.051Z,15
2016-05-30T16:51:46.976Z,15
2016-05-30T16:52:34.963Z,15
2016-05-30T16:53:39.512Z,10
2016-05-30T16:54:23.890Z,5
2016-05-30T16:55:40.268Z,10
2016-05-30T16:57:22.539Z,10